• Join FlightAware (Why Join?)
  • Login
  • US Flag 
04:23AM EDT


 

Airport Tracker/Info


-or-


 

Live Flight TrackerFlight Track Log ✈ UAL4604 ✈ 19-Apr-2013 ✈ KRIC - KIAH

Flight Track Log - Related Links

Times and Time Zones

All times are in EDT time to prevent confusion due to time zone crossing. See the UAL4604 flight status page for this flight to view local times or setup timezone preferences in your user account.

Time Position Orientation Groundspeed Altitude Reporting Facility
EDT Latitude Longitude Course Direction KTS MPH feet Rate Location/Type
05:13PM 37.4408 -77.3392 254° West 176 203 3,300  Level Washington Center
05:14PM 37.4314 -77.4172 261° West 199 229 5,700 2,460 Climbing Washington Center
05:15PM 37.4219 -77.4981 262° West 211 243 8,300 2,400 Climbing Washington Center
05:16PM 37.3997 -77.7266 257° West  Level FlightAware Approximate
05:16PM 37.4100 -77.5817 260° West 231 266 10,500  Level Washington Center
05:17PM 37.3800 -77.8317 254° West  Level FlightAware Approximate
05:17PM 37.4003 -77.6728 262° West 251 289 11,700  Level Washington Center
05:18PM 37.3569 -77.9357 254° West  Level FlightAware Approximate
05:18PM 37.3881 -77.7719 261° West 276 318 13,100  Level Washington Center
05:19PM 37.3736 -77.8786 260° West 297 342 14,700 1,500 Climbing Washington Center
05:20PM 37.3589 -77.9825 260° West 310 357 16,200 1,440 Climbing Washington Center
05:21PM 37.3361 -78.0786 253° West 319 367 17,600 1,500 Climbing Washington Center
05:22PM 37.3150 -78.1928 257° West 319 367 19,300 1,200 Climbing Washington Center
05:23PM 37.2878 -78.2858 250° West 314 361 20,000 300 Climbing Washington Center
05:24PM 37.2500 -78.3967 247° West 329 379 20,000 720 Level Washington Center
05:25PM 37.2139 -78.5075 248° West 342 394 21,500 1,740 Climbing Washington Center
05:26PM 37.1819 -78.6158 250° West 342 394 23,500 1,920 Climbing Washington Center
05:27PM 37.1500 -78.7239 250° West 323 372 25,400 1,380 Climbing Washington Center
05:28PM 37.1264 -78.8272 254° West 312 359 26,300 900 Climbing Washington Center
05:29PM 37.1214 -78.9364 267° West 312 359 27,200 720 Climbing Washington Center
05:30PM 37.1200 -79.0589 269° West 332 382 27,800 780 Climbing Washington Center
05:31PM 37.1183 -79.1839 269° West 349 402 28,800 1,140 Climbing Washington Center
05:32PM 37.1169 -79.2931 269° West 358 412 30,100 1,200 Climbing Washington Center
05:33PM 37.1153 -79.4156 269° West 358 412 31,300 1,080 Climbing Washington Center
05:34PM 37.1114 -79.5325 268° West 353 406 32,300 960 Climbing Washington Center
05:35PM 37.1075 -79.6519 268° West 348 400 33,300 1,080 Climbing Washington Center
05:36PM 37.1072 -79.7822 270° West 348 400 34,500 1,140 Climbing Washington Center
05:37PM 37.1053 -79.8942 269° West 343 395 35,600 420 Climbing Washington Center
05:40PM 37.0364 -80.1256 250° West 297 342 36,000 60 Climbing Atlanta Center
05:41PM 36.9917 -80.2292 242° Southwest 320 368 36,000  Level Atlanta Center
05:42PM 36.9447 -80.3300 240° Southwest 334 384 36,000  Level Atlanta Center
05:43PM 36.9019 -80.4281 241° Southwest 346 398 36,000  Level Atlanta Center
05:44PM 36.8528 -80.5342 240° Southwest 351 404 36,000  Level Atlanta Center
05:45PM 36.8017 -80.6428 240° Southwest 357 411 36,000  Level Atlanta Center
05:46PM 36.7528 -80.7589 242° Southwest 357 411 36,000  Level Atlanta Center
05:47PM 36.7033 -80.8617 239° Southwest 357 411 36,000  Level Atlanta Center
05:48PM 36.6561 -80.9722 242° Southwest 362 417 36,000  Level Atlanta Center
05:49PM 36.6044 -81.0803 239° Southwest 362 417 36,000  Level Atlanta Center
05:50PM 36.5550 -81.1881 240° Southwest 362 417 36,000  Level Atlanta Center
05:51PM 36.5053 -81.2958 240° Southwest 362 417 36,000  Level Atlanta Center
05:52PM 36.4556 -81.4033 240° Southwest 367 422 36,000  Level Atlanta Center
05:53PM 36.4056 -81.5108 240° Southwest 367 422 36,000  Level Atlanta Center
05:54PM 36.3556 -81.6128 239° Southwest 367 422 36,000  Level Atlanta Center
05:55PM 36.3136 -81.7069 241° Southwest 362 417 36,000  Level Atlanta Center
05:56PM 36.2656 -81.8139 241° Southwest 362 417 36,000  Level Atlanta Center
05:57PM 36.2172 -81.9156 240° Southwest 362 417 36,000  Level Atlanta Center
05:58PM 36.1669 -82.0197 239° Southwest 362 417 36,000  Level Atlanta Center
05:59PM 36.1164 -82.1264 240° Southwest 362 417 36,000  Level Atlanta Center
06:00PM 36.0575 -82.2358 236° Southwest 354 407 36,000  Level Atlanta Center
06:01PM 36.0111 -82.3394 241° Southwest 354 407 36,000  Level Atlanta Center
06:02PM 35.9664 -82.4275 238° Southwest 354 407 36,000  Level Atlanta Center
06:03PM 35.9175 -82.5311 240° Southwest 348 400 36,000  Level Atlanta Center
06:04PM 35.8667 -82.6344 239° Southwest 348 400 36,000  Level Atlanta Center
06:05PM 35.8178 -82.7378 240° Southwest 348 400 36,000  Level Atlanta Center
06:06PM 35.7667 -82.8411 239° Southwest 353 406 36,000  Level Atlanta Center
06:07PM 35.7156 -82.9467 239° Southwest 358 412 36,000  Level Atlanta Center
06:08PM 35.6664 -83.0519 240° Southwest 359 413 36,000  Level Atlanta Center
06:09PM 35.6150 -83.1522 238° Southwest 354 407 36,000  Level Atlanta Center
06:10PM 35.5636 -83.2625 240° Southwest 348 400 36,000  Level Atlanta Center
06:11PM 35.5139 -83.3600 238° Southwest 343 395 36,000  Level Atlanta Center
06:12PM 35.4686 -83.4547 240° Southwest 336 387 36,000  Level Atlanta Center
06:13PM 35.4189 -83.5494 237° Southwest 336 387 36,000  Level Atlanta Center
06:14PM 35.3692 -83.6517 239° Southwest 341 392 36,000  Level Atlanta Center
06:15PM 35.3194 -83.7511 239° Southwest 346 398 36,000  Level Atlanta Center
06:16PM 35.2653 -83.8556 238° Southwest 346 398 36,000  Level Atlanta Center
06:17PM 35.2156 -83.9522 238° Southwest 346 398 36,000  Level Atlanta Center
06:18PM 35.1653 -84.0539 239° Southwest 346 398 36,000  Level Atlanta Center
06:19PM 35.1153 -84.1531 238° Southwest 346 398 36,000  Level Atlanta Center
06:20PM 35.0733 -84.2392 239° Southwest 341 392 36,000  Level Atlanta Center
06:21PM 35.0231 -84.3381 238° Southwest 341 392 36,000  Level Atlanta Center
06:22PM 34.9706 -84.4367 237° Southwest 341 392 36,000  Level Atlanta Center
06:23PM 34.9181 -84.5453 240° Southwest 341 392 36,000  Level Atlanta Center
06:24PM 34.8739 -84.6286 237° Southwest 341 392 36,000  Level Atlanta Center
06:25PM 34.8256 -84.7269 239° Southwest 341 392 36,000  Level Atlanta Center
06:26PM 34.7728 -84.8253 237° Southwest 341 392 36,000  Level Atlanta Center
06:27PM 34.7219 -84.9233 238° Southwest 341 392 36,000  Level Atlanta Center
06:28PM 34.6711 -85.0214 238° Southwest 341 392 36,000  Level Atlanta Center
06:29PM 34.6158 -85.1317 239° Southwest 341 392 36,000  Level Atlanta Center
06:30PM 34.5672 -85.2194 236° Southwest 346 398 36,000  Level Atlanta Center
06:31PM 34.5161 -85.3219 239° Southwest 346 398 36,000  Level Atlanta Center
06:32PM 34.4647 -85.4194 237° Southwest 346 398 36,000  Level Atlanta Center
06:33PM 34.4136 -85.5194 238° Southwest 346 398 36,000  Level Atlanta Center
06:34PM 34.3558 -85.6267 237° Southwest 346 398 36,000  Level Atlanta Center
06:35PM 34.3067 -85.7261 239° Southwest 346 398 36,000  Level Atlanta Center
06:36PM 34.2594 -85.8108 236° Southwest 338 389 36,000  Level Atlanta Center
06:37PM 34.2058 -85.9050 235° Southwest 338 389 36,000  Level Atlanta Center
06:38PM 34.1544 -86.0019 237° Southwest 344 396 36,000  Level Atlanta Center
06:39PM 34.1028 -86.0958 236° Southwest 344 396 36,000  Level Atlanta Center
06:40PM 34.0508 -86.1950 238° Southwest 344 396 36,000  Level Atlanta Center
06:41PM 33.9992 -86.2914 237° Southwest 344 396 36,000  Level Atlanta Center
06:42PM 33.9450 -86.3875 236° Southwest 344 396 36,000  Level Atlanta Center
06:43PM 33.8889 -86.4911 237° Southwest 338 389 36,000  Level Atlanta Center
06:44PM 33.8389 -86.5872 238° Southwest 338 389 36,000  Level Atlanta Center
06:45PM 33.7867 -86.6831 237° Southwest 338 389 36,000  Level Atlanta Center
06:46PM 33.7367 -86.7742 237° Southwest 338 389 36,000  Level Atlanta Center
06:47PM 33.6867 -86.8675 237° Southwest 338 389 36,000  Level Atlanta Center
06:48PM 33.6447 -86.9658 243° Southwest 338 389 36,000  Level Atlanta Center
06:49PM 33.6108 -87.0669 248° West 332 382 36,000  Level Atlanta Center
06:50PM 33.5747 -87.1753 248° West 338 389 36,000  Level Atlanta Center
06:52PM 33.5025 -87.3853 248° West 340 391 36,000  Level Memphis Center
06:53PM 33.4675 -87.4886 248° West 340 391 36,000  Level Memphis Center
06:54PM 33.4303 -87.5942 247° West 340 391 36,000  Level Memphis Center
06:55PM 33.3950 -87.7000 248° West 340 391 36,000  Level Memphis Center
06:56PM 33.3575 -87.8056 247° West 340 391 36,000  Level Memphis Center
06:57PM 33.3219 -87.9108 248° West 340 391 36,000  Level Memphis Center
06:58PM 33.2864 -88.0139 248° West 340 391 36,000  Level Memphis Center
06:59PM 33.2486 -88.1192 247° West 335 386 36,000  Level Memphis Center
07:00PM 33.2108 -88.2194 246° West 335 386 36,000  Level Memphis Center
07:01PM 33.1667 -88.3197 242° Southwest 340 391 36,000  Level Memphis Center
07:02PM 33.1264 -88.4200 244° Southwest 340 391 36,000  Level Memphis Center
07:03PM 33.0800 -88.5175 240° Southwest 345 397 36,000  Level Memphis Center
07:04PM 33.0375 -88.6153 243° Southwest 345 397 36,000  Level Memphis Center
07:05PM 32.9931 -88.7175 243° Southwest 345 397 36,000  Level Memphis Center
07:06PM 32.9506 -88.8175 243° Southwest 345 397 36,000  Level Memphis Center
07:07PM 32.9078 -88.9122 242° Southwest 339 390 36,000  Level Memphis Center
07:08PM 32.8650 -89.0094 242° Southwest 339 390 36,000  Level Memphis Center
07:09PM 32.8222 -89.1064 242° Southwest 334 384 36,000  Level Memphis Center
07:10PM 32.7792 -89.2033 242° Southwest 334 384 36,000  Level Memphis Center
07:11PM 32.7364 -89.3028 243° Southwest 334 384 36,000  Level Memphis Center
07:12PM 32.6911 -89.3994 241° Southwest 334 384 36,000  Level Memphis Center
07:13PM 32.6481 -89.4986 243° Southwest 334 384 36,000  Level Memphis Center
07:14PM 32.6047 -89.5978 243° Southwest 334 384 36,000  Level Memphis Center
07:15PM 32.5617 -89.6942 242° Southwest 334 384 36,000  Level Memphis Center
07:16PM 32.5161 -89.7931 241° Southwest 334 384 36,000  Level Memphis Center
07:17PM 32.4706 -89.8894 241° Southwest 334 384 36,000  Level Memphis Center
07:18PM 32.4292 -89.9881 244° Southwest 334 384 36,000  Level Memphis Center
07:19PM 32.3836 -90.0842 241° Southwest 334 384 36,000  Level Memphis Center
07:20PM 32.3397 -90.1828 242° Southwest 334 384 36,000  Level Memphis Center
07:21PM 32.2961 -90.2811 242° Southwest 329 379 36,000  Level Memphis Center
07:22PM 32.2522 -90.3744 241° Southwest 329 379 36,000  Level Memphis Center
07:23PM 32.2083 -90.4728 242° Southwest 329 379 36,000  Level Memphis Center
07:24PM 32.1625 -90.5708 241° Southwest 334 384 36,000  Level Memphis Center
07:25PM 32.1183 -90.6689 242° Southwest 334 384 36,000  Level Memphis Center
07:26PM 32.0700 -90.7758 242° Southwest 337 388 36,000  Level Houston Center
07:27PM 32.0275 -90.8711 242° Southwest 337 388 36,000  Level Houston Center
07:28PM 31.9825 -90.9686 241° Southwest 339 390 36,000  Level Houston Center
07:29PM 31.9353 -91.0667 240° Southwest 343 395 36,000  Level Houston Center
07:30PM 31.8811 -91.1828 241° Southwest 339 390 36,000  Level Houston Center
07:31PM 31.8353 -91.2822 242° Southwest 344 396 36,000  Level Houston Center
07:32PM 31.7903 -91.3792 241° Southwest 341 392 36,000  Level Houston Center
07:33PM 31.7433 -91.4781 241° Southwest 344 396 36,000  Level Houston Center
07:34PM 31.6981 -91.5753 241° Southwest 343 395 36,000 -60 Level Houston Center
07:35PM 31.6528 -91.6725 241° Southwest 340 391 35,900 -540 Descending Houston Center
07:36PM 31.5969 -91.7906 241° Southwest 344 396 35,000 -480 Descending Houston Center
07:37PM 31.5517 -91.8858 241° Southwest 340 391 35,000  Level Houston Center
07:38PM 31.5050 -91.9833 241° Southwest 341 392 35,000  Level Houston Center
07:39PM 31.4575 -92.0819 241° Southwest 349 402 35,000  Level Houston Center
07:40PM 31.4086 -92.1822 240° Southwest 350 403 35,000  Level Houston Center
07:41PM 31.3622 -92.2794 241° Southwest 349 402 35,000  Level Houston Center
07:42PM 31.3058 -92.3983 241° Southwest 349 402 35,000  Level Houston Center
07:43PM 31.2575 -92.4975 240° Southwest 352 405 35,000  Level Houston Center
07:44PM 31.2078 -92.5914 238° Southwest 347 399 35,000  Level Houston Center
07:45PM 31.1553 -92.6817 236° Southwest 340 391 35,000  Level Houston Center
07:46PM 31.1036 -92.7744 237° Southwest 340 391 35,000 -540 Level Houston Center
07:47PM 31.0422 -92.8847 237° Southwest 340 391 34,000 -1,200 Descending Houston Center
07:49PM 30.9900 -92.9778 237° Southwest 342 394 32,600 -1,440 Descending Houston Center
07:50PM 30.9375 -93.0714 237° Southwest 345 397 31,100 -1,500 Descending Houston Center
07:51PM 30.8842 -93.1658 237° Southwest 348 400 29,500 -1,500 Descending Houston Center
07:52PM 30.8292 -93.2625 236° Southwest 358 412 28,000 -1,500 Descending Houston Center
07:53PM 30.7733 -93.3600 236° Southwest 363 418 26,400 -1,680 Descending Houston Center
07:54PM 30.7078 -93.4783 237° Southwest 366 421 24,600 -1,200 Descending Houston Center
07:55PM 30.6511 -93.5758 236° Southwest 367 422 24,000 -300 Descending Houston Center
07:56PM 30.5989 -93.6678 237° Southwest 349 402 24,000 -540 Level Houston Center
07:57PM 30.5481 -93.7553 236° Southwest 333 383 23,000 -1,260 Descending Houston Center
07:58PM 30.5003 -93.8403 237° Southwest 321 369 21,500 -1,800 Descending Houston Center
07:59PM 30.4411 -93.9422 236° Southwest 321 369 19,400 -1,980 Descending Houston Center
07:59PM 30.4236 -93.9711 235° Southwest 322 371 18,800 -1,680 Descending Houston Center
08:00PM 30.3919 -94.0272 237° Southwest 320 368 17,700 -1,800 Descending Houston Center
08:01PM 30.3558 -94.0894 236° Southwest 317 365 16,400 -1,860 Descending Houston Center
08:01PM 30.3428 -94.1128 237° Southwest 320 368 15,800 -1,860 Descending Houston Center
08:01PM 30.3131 -94.1653 237° Southwest 324 373 14,700 -1,980 Descending Houston Center
08:02PM 30.2928 -94.2003 236° Southwest 326 375 13,800 -2,100 Descending Houston Center
08:02PM 30.2569 -94.2575 234° Southwest 326 375 12,600 -1,560 Descending Houston Center
08:03PM 30.2425 -94.2856 239° Southwest 324 373 12,200 -540 Descending Houston Center
08:04PM 30.2033 -94.3517 236° Southwest 317 365 12,000 -540 Descending Houston Center
08:04PM 30.1983 -94.3906 262° West 307 353 11,700 -1,500 Descending Houston Center
08:05PM 30.1983 -94.4492 270° West 273 314 10,500 -2,040 Descending Houston Center
08:05PM 30.2011 -94.4794 276° West 275 316 9,600 -2,520 Descending Houston Center
08:06PM 30.1994 -94.5264 268° West 266 306 8,200 -2,520 Descending Houston Center
08:06PM 30.2019 -94.5700 274° West 267 307 7,000 -1,740 Descending Houston Center
08:07PM 30.1914 -94.6144 255° West 261 300 6,300 -1,020 Descending Houston Center
08:07PM 30.1750 -94.6483 241° Southwest 270 311 6,000 -300 Descending Houston Center
08:08PM 30.1550 -94.6967 244° Southwest 272 313 6,000 -300 Level Houston Center
08:08PM 30.1450 -94.7269 249° West 270 311 5,700 -1,020 Descending Houston Center
08:09PM 30.1272 -94.7775 248° West 267 307 5,000 -1,020 Descending Houston Center
08:09PM 30.1203 -94.8072 255° West 266 306 4,700 -900 Descending Houston Center
08:10PM 30.1047 -94.8503 247° West 261 300 4,200 -720 Descending Houston Center
08:10PM 30.0967 -94.8850 255° West 259 298 4,000 -240 Descending Houston Center
08:11PM 30.0806 -94.9283 247° West 249 287 4,000  Level Houston Center
08:11PM 30.0706 -94.9606 250° West 255 293 4,000  Level Houston Center
08:12PM 30.0544 -95.0064 248° West 260 299 4,000  Level Houston Center
08:12PM 30.0381 -95.0514 247° West 257 296 4,000 -120 Level Houston Center
08:13PM 30.0275 -95.0797 247° West 246 283 3,900 -300 Descending Houston Center
08:13PM 30.0136 -95.1200 248° West 236 272 3,700 -540 Descending Houston Center
08:14PM 30.0083 -95.1425 255° West 223 257 3,400 -780 Descending Houston Center
08:14PM 30.0078 -95.1875 269° West 215 247 2,900 -1,020 Descending Houston Center
08:15PM 30.0061 -95.2103 265° West 191 220 2,400 -1,260 Descending Houston Center
08:15PM 30.0078 -95.2444 273° West 197 227 1,600 -1,020 Descending Houston Center
08:16PM 30.0069 -95.2658 267° West 144 166 1,300 -720 Descending Houston Center
08:16PM 30.0075 -95.2922 271° West 174 200 900 -780 Descending Houston Center
08:17PM 30.0069 -95.3092 268° West 141 162 600 -540 Descending Houston Center
08:17PM 30.0075 -95.3444 271° West 161 185 400 -300 Descending Houston Center